TimeCDT,TemperatureF,Dew PointF,Humidity,Sea Level PressureIn,VisibilityMPH,Wind Direction,Wind SpeedMPH,Gust SpeedMPH,PrecipitationIn,Events,Conditions,WindDirDegrees,DateUTC
12:53 AM,39.0,26.1,60,30.36,10.0,South,5.8,-,N/A,,Clear,180,2013-03-27 05:53:00
1:53 AM,34.0,28.0,79,30.36,10.0,Calm,Calm,-,N/A,,Clear,0,2013-03-27 06:53:00
2:53 AM,36.0,25.0,64,30.34,10.0,Calm,Calm,-,N/A,,Clear,0,2013-03-27 07:53:00
3:53 AM,35.1,27.0,72,30.32,10.0,Calm,Calm,-,N/A,,Clear,0,2013-03-27 08:53:00
4:53 AM,32.0,27.0,82,30.32,10.0,Calm,Calm,-,N/A,,Clear,0,2013-03-27 09:53:00
5:53 AM,30.9,26.1,82,30.32,10.0,SE,3.5,-,N/A,,Clear,130,2013-03-27 10:53:00
6:53 AM,30.0,27.0,88,30.35,10.0,Variable,3.5,-,N/A,,Clear,0,2013-03-27 11:53:00
7:53 AM,36.0,26.1,67,30.37,10.0,SSE,4.6,-,N/A,,Clear,150,2013-03-27 12:53:00
8:53 AM,44.1,27.0,51,30.39,10.0,South,6.9,-,N/A,,Clear,170,2013-03-27 13:53:00
9:53 AM,46.9,27.0,46,30.40,10.0,SSE,11.5,-,N/A,,Clear,160,2013-03-27 14:53:00
10:53 AM,51.1,27.0,39,30.40,10.0,South,8.1,-,N/A,,Clear,190,2013-03-27 15:53:00
11:53 AM,55.0,27.0,34,30.38,10.0,SSE,4.6,-,N/A,,Clear,150,2013-03-27 16:53:00
12:53 PM,57.9,28.9,33,30.35,10.0,South,9.2,-,N/A,,Clear,180,2013-03-27 17:53:00
1:53 PM,61.0,28.9,30,30.31,10.0,SSW,9.2,-,N/A,,Clear,200,2013-03-27 18:53:00
2:53 PM,61.0,30.9,32,30.29,10.0,SSE,4.6,18.4,N/A,,Clear,160,2013-03-27 19:53:00
3:53 PM,64.0,32.0,30,30.25,10.0,SSE,9.2,-,N/A,,Clear,160,2013-03-27 20:53:00
4:53 PM,64.0,32.0,30,30.22,10.0,Variable,6.9,-,N/A,,Clear,0,2013-03-27 21:53:00
5:53 PM,63.0,32.0,31,30.20,10.0,SE,11.5,18.4,N/A,,Clear,130,2013-03-27 22:53:00
6:53 PM,61.0,30.0,31,30.20,10.0,SSE,9.2,-,N/A,,Clear,160,2013-03-27 23:53:00
7:53 PM,55.9,32.0,40,30.20,10.0,SE,4.6,-,N/A,,Clear,140,2013-03-28 00:53:00
8:53 PM,53.1,32.0,45,30.21,10.0,ESE,3.5,-,N/A,,Clear,120,2013-03-28 01:53:00
9:53 PM,53.1,32.0,45,30.22,10.0,SE,5.8,-,N/A,,Clear,130,2013-03-28 02:53:00
10:53 PM,52.0,30.9,45,30.24,10.0,SE,5.8,-,N/A,,Clear,130,2013-03-28 03:53:00
11:53 PM,53.1,30.9,43,30.25,10.0,SE,6.9,-,N/A,,Mostly Cloudy,130,2013-03-28 04:53:00